Time;durP1;ratioP1;P1;durP2;ratioP2;P2;SDS_P1;SDS_P2;PMS_P1;PMS_P2;Temp;Humidity;BMP_temperature;BMP_pressure;BME280_temperature;BME280_humidity;BME280_pressure;Samples;Min_cycle;Max_cycle;Signal;HPM_P1;HPM_P2
2024/03/20 00:00:43;;;;;;;;;23.67;19.33;;;;;-143.90;100.00;77269.13;4875711;28;104559;-74
2024/03/20 00:03:09;;;;;;;;;25.67;23.67;;;;;-143.90;100.00;77264.97;4865269;28;102585;-74
2024/03/20 00:05:35;;;;;;;;;26.33;17.67;;;;;-143.90;100.00;77267.03;4880589;28;104999;-76
2024/03/20 00:08:01;;;;;;;;;23.00;17.00;;;;;-143.90;100.00;77279.44;4874940;28;104565;-74
2024/03/20 00:10:27;;;;;;;;;24.33;20.33;;;;;-143.90;100.00;77281.53;4902831;28;105527;-74
2024/03/20 00:12:53;;;;;;;;;59.50;47.00;;;;;-143.90;100.00;77298.06;4877983;28;102247;-74
2024/03/20 00:15:19;;;;;;;;;49.67;44.33;;;;;-143.90;100.00;77300.13;4880713;28;103491;-74
2024/03/20 00:17:47;;;;;;;;;72.50;56.75;;;;;-143.90;100.00;77308.41;4874401;28;102422;-73
2024/03/20 00:20:13;;;;;;;;;73.25;55.25;;;;;-143.90;100.00;77310.47;4875974;28;104703;-73
2024/03/20 00:22:39;;;;;;;;;77.00;60.00;;;;;-143.90;100.00;77318.75;4878086;28;102486;-74
2024/03/20 00:25:05;;;;;;;;;92.50;67.00;;;;;-143.90;100.00;77327.03;4879832;28;102434;-74
2024/03/20 00:27:30;;;;;;;;;76.00;60.25;;;;;-143.90;100.00;77322.88;4884482;28;102510;-74
2024/03/20 00:29:56;;;;;;;;;64.50;51.50;;;;;-143.90;100.00;77318.75;4850587;28;104539;-73
2024/03/20 00:32:22;;;;;;;;;63.50;51.00;;;;;-143.90;100.00;77318.75;4879566;28;102040;-73
2024/03/20 00:34:48;;;;;;;;;77.50;59.00;;;;;-143.90;100.00;77310.47;4884633;28;102304;-74
2024/03/20 00:37:14;;;;;;;;;68.25;52.50;;;;;-143.90;100.00;77318.75;4877017;28;102863;-73
2024/03/20 00:39:40;;;;;;;;;70.25;51.50;;;;;-143.90;100.00;77320.81;4868035;28;104756;-73
2024/03/20 00:42:06;;;;;;;;;76.50;52.75;;;;;-143.90;100.00;77335.31;4884498;28;102525;-73
2024/03/20 00:44:36;;;;;;;;;57.50;40.00;;;;;-143.90;100.00;77329.09;4883093;28;103081;-73
2024/03/20 00:47:09;;;;;;;;;70.75;55.50;;;;;-143.90;100.00;77331.16;4864999;28;102481;-75
2024/03/20 00:49:38;;;;;;;;;51.00;40.00;;;;;-143.90;100.00;77324.97;4881156;28;108683;-74
2024/03/20 00:52:04;;;;;;;;;58.00;43.00;;;;;-143.90;100.00;77318.75;4881294;28;102458;-72
2024/03/20 00:54:29;;;;;;;;;42.00;36.33;;;;;-143.90;100.00;77314.63;4884992;28;103580;-74
2024/03/20 00:56:55;;;;;;;;;39.33;33.00;;;;;-143.90;100.00;77314.63;4885819;28;102553;-73
2024/03/20 00:59:21;;;;;;;;;47.00;38.33;;;;;-143.90;100.00;77314.63;4882051;28;105868;-74
2024/03/20 01:01:47;;;;;;;;;65.25;49.50;;;;;-143.90;100.00;77320.81;4872424;28;102502;-74
2024/03/20 01:04:14;;;;;;;;;62.25;46.75;;;;;-143.90;100.00;77318.75;4899019;28;102050;-73
2024/03/20 01:06:40;;;;;;;;;60.25;44.00;;;;;-143.90;100.00;77310.47;4893118;28;104243;-73
2024/03/20 01:09:05;;;;;;;;;58.33;42.67;;;;;-143.90;100.00;77314.63;4879777;28;105182;-72
2024/03/20 01:11:31;;;;;;;;;56.00;43.00;;;;;-143.90;100.00;77318.75;4881710;28;102724;-73
2024/03/20 01:13:57;;;;;;;;;38.00;29.00;;;;;-143.90;100.00;77318.75;4885648;28;102231;-73
2024/03/20 01:16:28;;;;;;;;;51.25;41.00;;;;;-143.90;100.00;77316.69;4878894;28;102273;-73
2024/03/20 01:18:56;;;;;;;;;35.33;31.67;;;;;-143.90;100.00;77310.47;4880361;28;104467;-73
2024/03/20 01:21:22;;;;;;;;;47.00;32.33;;;;;-143.90;100.00;77314.63;4898092;28;102318;-73
2024/03/20 01:23:47;;;;;;;;;43.33;33.67;;;;;-143.90;100.00;77314.63;4873556;28;101867;-73
2024/03/20 01:26:13;;;;;;;;;24.67;19.33;;;;;-143.90;100.00;77306.34;4907597;28;101988;-72
2024/03/20 01:28:39;;;;;;;;;26.00;21.67;;;;;-143.90;100.00;77310.47;4871657;28;104872;-73
2024/03/20 01:31:05;;;;;;;;;23.67;18.00;;;;;-143.90;100.00;77306.34;4888484;28;102535;-71
2024/03/20 01:33:31;;;;;;;;;22.00;20.33;;;;;-143.90;100.00;77308.41;4878972;28;102019;-73
2024/03/20 01:35:56;;;;;;;;;24.00;17.33;;;;;-143.90;100.00;77306.34;4862232;28;103771;-72
2024/03/20 01:38:22;;;;;;;;;19.33;13.00;;;;;-143.90;100.00;77302.22;4880761;28;104773;-73
2024/03/20 01:40:47;;;;;;;;;34.33;29.67;;;;;-143.90;100.00;77308.41;4874736;28;102596;-73
2024/03/20 01:43:21;;;;;;;;;44.67;36.00;;;;;-143.90;100.00;77320.81;4877396;28;102316;-73
2024/03/20 01:45:50;;;;;;;;;34.67;30.00;;;;;-143.90;100.00;77314.63;4865404;28;102603;-73
2024/03/20 01:48:16;;;;;;;;;42.75;37.00;;;;;-143.90;100.00;77318.75;4895419;28;104597;-73
2024/03/20 01:50:43;;;;;;;;;48.00;43.50;;;;;-143.90;100.00;77322.88;4882134;28;102140;-73
2024/03/20 01:53:11;;;;;;;;;46.00;36.00;;;;;-143.90;100.00;77322.88;4879382;28;102039;-73
2024/03/20 01:55:37;;;;;;;;;47.67;37.33;;;;;-143.90;100.00;77322.88;4866508;28;102723;-73
2024/03/20 01:58:03;;;;;;;;;37.00;33.00;;;;;-143.90;100.00;77324.97;4876449;28;103521;-73
2024/03/20 02:00:30;;;;;;;;;37.33;35.00;;;;;-143.90;100.00;77333.22;4877617;28;105671;-72
2024/03/20 02:02:59;;;;;;;;;37.67;32.00;;;;;-143.90;100.00;77331.16;4873921;28;102204;-72
2024/03/20 02:05:25;;;;;;;;;40.33;30.33;;;;;-143.90;100.00;77327.03;4877651;28;102409;-72
2024/03/20 02:07:58;;;;;;;;;39.00;32.00;;;;;-143.90;100.00;77314.63;4866779;28;104549;-75
2024/03/20 02:10:24;;;;;;;;;34.67;26.67;;;;;-143.90;100.00;77327.03;4876273;28;102339;-72
2024/03/20 02:13:04;;;;;;;;;29.00;23.67;;;;;-143.90;100.00;77324.97;4891997;28;102732;-73
2024/03/20 02:15:37;;;;;;;;;32.67;27.33;;;;;-143.90;100.00;77327.03;4877718;28;102553;-73
2024/03/20 02:18:04;;;;;;;;;69.25;47.25;;;;;-143.90;100.00;77337.38;4867857;28;109250;-72
2024/03/20 02:20:30;;;;;;;;;66.25;47.75;;;;;-143.90;100.00;77335.31;4881207;28;102744;-72
2024/03/20 02:22:58;;;;;;;;;50.00;42.33;;;;;-143.90;100.00;77333.22;4901540;28;102868;-72
2024/03/20 02:25:28;;;;;;;;;45.33;33.67;;;;;-143.90;100.00;77337.38;4896685;28;102261;-72
2024/03/20 02:27:54;;;;;;;;;42.67;38.00;;;;;-143.90;100.00;77327.03;4854501;28;104909;-72
2024/03/20 02:30:20;;;;;;;;;49.00;37.00;;;;;-143.90;100.00;77337.38;4871617;28;102397;-71
2024/03/20 02:32:45;;;;;;;;;61.25;47.50;;;;;-143.90;100.00;77341.50;4877016;28;102426;-71
2024/03/20 02:35:11;;;;;;;;;36.00;30.33;;;;;-143.90;100.00;77339.44;4894261;28;102155;-71
2024/03/20 02:37:37;;;;;;;;;38.67;32.67;;;;;-143.90;100.00;77335.31;4876127;28;105274;-71
2024/03/20 02:40:05;;;;;;;;;26.00;26.00;;;;;-143.90;100.00;77331.16;4879941;28;102239;-71
2024/03/20 02:42:34;;;;;;;;;20.33;13.00;;;;;-143.90;100.00;77343.56;4901022;28;102307;-72
2024/03/20 02:45:00;;;;;;;;;31.67;25.67;;;;;-143.90;100.00;77343.56;4899813;28;102094;-71
2024/03/20 02:47:25;;;;;;;;;29.67;24.00;;;;;-143.90;100.00;77351.84;4878763;28;104625;-71
2024/03/20 02:49:53;;;;;;;;;39.67;28.00;;;;;-143.90;100.00;77343.56;4844061;28;102669;-71
2024/03/20 02:52:19;;;;;;;;;26.67;21.67;;;;;-143.90;100.00;77341.50;4881405;28;102249;-70
2024/03/20 02:54:45;;;;;;;;;23.33;18.67;;;;;-143.90;100.00;77347.72;4881878;28;102230;-72
2024/03/20 02:57:11;;;;;;;;;46.00;34.00;;;;;-143.90;100.00;77347.72;4880686;28;104556;-72
2024/03/20 02:59:36;;;;;;;;;47.00;35.67;;;;;-143.90;100.00;77353.91;4879627;28;102408;-71
2024/03/20 03:02:02;;;;;;;;;34.33;30.00;;;;;-143.90;100.00;77351.84;4872648;28;102289;-71
2024/03/20 03:04:28;;;;;;;;;30.00;21.67;;;;;-143.90;100.00;77347.72;4877752;28;103986;-71
2024/03/20 03:06:54;;;;;;;;;24.33;23.67;;;;;-143.90;100.00;77353.91;4897529;28;104664;-70
2024/03/20 03:09:20;;;;;;;;;29.00;25.00;;;;;-143.90;100.00;77349.78;4878572;28;102331;-71
2024/03/20 03:11:47;;;;;;;;;43.67;35.33;;;;;-143.90;100.00;77358.06;4872668;28;102099;-70
2024/03/20 03:14:14;;;;;;;;;51.75;46.25;;;;;-143.90;100.00;77364.25;4881140;28;102561;-70
2024/03/20 03:16:39;;;;;;;;;54.50;42.00;;;;;-143.90;100.00;77364.25;4878945;28;104613;-70
2024/03/20 03:19:06;;;;;;;;;34.67;28.00;;;;;-143.90;100.00;77356.00;4878125;28;102244;-70
2024/03/20 03:21:32;;;;;;;;;31.00;25.67;;;;;-143.90;100.00;77351.84;4895127;28;102339;-71
2024/03/20 03:23:57;;;;;;;;;24.00;21.00;;;;;-143.90;100.00;77360.13;4889058;28;102330;-69
2024/03/20 03:26:24;;;;;;;;;33.00;22.67;;;;;-143.90;100.00;77358.06;4895588;28;104643;-69
2024/03/20 03:28:50;;;;;;;;;25.33;22.33;;;;;-143.90;100.00;77362.19;4879270;28;102492;-72
2024/03/20 03:31:15;;;;;;;;;33.67;25.33;;;;;-143.90;100.00;77360.13;4878548;28;104319;-69
2024/03/20 03:33:41;;;;;;;;;28.00;23.33;;;;;-143.90;100.00;77366.34;4894843;28;102515;-69
2024/03/20 03:36:08;;;;;;;;;30.00;21.00;;;;;-143.90;100.00;77358.06;4876508;28;110304;-71
2024/03/20 03:38:35;;;;;;;;;38.00;33.67;;;;;-143.90;100.00;77368.41;4877149;28;102480;-69
2024/03/20 03:41:04;;;;;;;;;80.00;56.25;;;;;-143.90;100.00;77374.59;4881449;28;102258;-69
2024/03/20 03:43:31;;;;;;;;;70.50;57.50;;;;;-143.90;100.00;77380.81;4879887;28;101981;-69
2024/03/20 03:45:57;;;;;;;;;71.25;55.00;;;;;-143.90;100.00;77380.81;4890186;28;104547;-70
2024/03/20 03:48:24;;;;;;;;;73.50;55.25;;;;;-143.90;100.00;77380.81;4896257;28;102539;-70
2024/03/20 03:50:50;;;;;;;;;56.50;47.75;;;;;-143.90;100.00;77382.88;4884518;28;102315;-69
2024/03/20 03:53:17;;;;;;;;;56.25;43.00;;;;;-143.90;100.00;77387.00;4883381;28;102581;-70
2024/03/20 03:55:44;;;;;;;;;52.50;38.25;;;;;-143.90;100.00;77380.81;4876900;28;104624;-69
2024/03/20 03:58:09;;;;;;;;;34.67;32.00;;;;;-143.90;100.00;77374.59;4901698;28;102751;-69
2024/03/20 04:00:35;;;;;;;;;36.00;30.33;;;;;-143.90;100.00;77376.66;4899634;28;101965;-69
2024/03/20 04:03:01;;;;;;;;;35.67;31.00;;;;;-143.90;100.00;77384.94;4892171;28;102446;-69
2024/03/20 04:05:27;;;;;;;;;36.67;30.33;;;;;-143.90;100.00;77387.00;4883494;28;102761;-68
2024/03/20 04:07:53;;;;;;;;;37.33;27.33;;;;;-143.90;100.00;77380.81;4868854;28;104901;-68
2024/03/20 04:10:20;;;;;;;;;33.33;26.00;;;;;-143.90;100.00;77391.16;4882812;28;104289;-70
2024/03/20 04:12:45;;;;;;;;;26.67;22.67;;;;;-143.90;100.00;77389.09;4882078;28;102562;-69
2024/03/20 04:15:12;;;;;;;;;27.33;22.00;;;;;-143.90;100.00;77384.94;4877699;28;104710;-69
2024/03/20 04:17:38;;;;;;;;;26.33;22.00;;;;;-143.90;100.00;77387.00;4868568;28;103742;-69
2024/03/20 04:20:05;;;;;;;;;23.67;19.00;;;;;-143.90;100.00;77382.88;4877970;28;102146;-69
2024/03/20 04:22:31;;;;;;;;;29.67;21.00;;;;;-143.90;100.00;77389.09;4859550;28;103982;-69
2024/03/20 04:24:57;;;;;;;;;21.33;18.00;;;;;-143.90;100.00;77389.09;4890080;28;104508;-70
2024/03/20 04:27:22;;;;;;;;;20.00;16.00;;;;;-143.90;100.00;77384.94;4873877;28;102100;-68
2024/03/20 04:29:48;;;;;;;;;15.33;13.67;;;;;-143.90;100.00;77384.94;4874652;28;103858;-69
2024/03/20 04:32:14;;;;;;;;;16.67;13.33;;;;;-143.90;100.00;77382.88;4880536;28;102340;-68
2024/03/20 04:34:40;;;;;;;;;21.33;18.33;;;;;-143.90;100.00;77391.16;4886300;28;104597;-68
2024/03/20 04:37:06;;;;;;;;;16.67;14.00;;;;;-143.90;100.00;77397.34;4883908;28;102268;-68
2024/03/20 04:39:35;;;;;;;;;30.67;22.67;;;;;-143.90;100.00;77418.03;4876587;28;102402;-69
2024/03/20 04:42:02;;;;;;;;;26.67;19.33;;;;;-143.90;100.00;77405.63;4873133;28;102133;-69
2024/03/20 04:44:28;;;;;;;;;26.00;17.33;;;;;-143.90;100.00;77403.56;4880771;28;104944;-69
2024/03/20 04:46:54;;;;;;;;;19.00;17.33;;;;;-143.90;100.00;77409.78;4885190;28;102368;-68
2024/03/20 04:49:20;;;;;;;;;14.00;10.00;;;;;-143.90;100.00;77409.78;4896807;28;104359;-69
2024/03/20 04:51:46;;;;;;;;;15.33;13.33;;;;;-143.90;100.00;77405.63;4873272;28;102394;-68
2024/03/20 04:54:13;;;;;;;;;12.33;9.33;;;;;-143.90;100.00;77403.56;4882360;28;103812;-67
2024/03/20 04:56:38;;;;;;;;;10.67;9.33;;;;;-143.90;100.00;77399.44;4885354;28;102476;-69
2024/03/20 04:59:04;;;;;;;;;10.67;9.33;;;;;-143.90;100.00;77403.56;4881000;28;102682;-68
2024/03/20 05:01:29;;;;;;;;;16.67;15.33;;;;;-143.90;100.00;77395.28;4886619;28;102418;-69
2024/03/20 05:03:55;;;;;;;;;17.33;12.67;;;;;-143.90;100.00;77397.34;4890273;28;104488;-69
2024/03/20 05:06:21;;;;;;;;;13.00;11.67;;;;;-143.90;100.00;77401.50;4897782;28;102060;-69
2024/03/20 05:08:46;;;;;;;;;17.33;15.00;;;;;-143.90;100.00;77403.56;4900643;28;103797;-69
2024/03/20 05:11:12;;;;;;;;;13.00;8.00;;;;;-143.90;100.00;77393.22;4898548;28;102200;-68
2024/03/20 05:13:37;;;;;;;;;11.67;7.00;;;;;-143.90;100.00;77389.09;4885117;28;109131;-68
2024/03/20 05:16:07;;;;;;;;;45.25;39.50;;;;;-143.90;100.00;77382.88;4867924;28;102411;-70
2024/03/20 05:18:33;;;;;;;;;80.00;58.75;;;;;-143.90;100.00;77376.66;4878959;28;102432;-69
2024/03/20 05:20:59;;;;;;;;;47.50;43.50;;;;;-143.90;100.00;77368.41;4885499;28;101977;-69
2024/03/20 05:23:24;;;;;;;;;34.67;24.67;;;;;-143.90;100.00;77366.34;4880642;28;104432;-70
2024/03/20 05:25:55;;;;;;;;;39.67;29.33;;;;;-143.90;100.00;77360.13;4868859;28;102362;-69
2024/03/20 05:28:21;;;;;;;;;33.67;25.67;;;;;-143.90;100.00;77360.13;4885071;28;102739;-69
2024/03/20 05:30:47;;;;;;;;;26.67;23.33;;;;;-143.90;100.00;77351.84;4889180;28;102479;-69
2024/03/20 05:33:13;;;;;;;;;22.33;21.33;;;;;-143.90;100.00;77347.72;4872654;28;104561;-69
2024/03/20 05:35:38;;;;;;;;;33.00;25.67;;;;;-143.90;100.00;77341.50;4869027;28;102513;-70
2024/03/20 05:38:04;;;;;;;;;27.00;26.33;;;;;-143.90;100.00;77341.50;4866145;28;102663;-69
2024/03/20 05:40:29;;;;;;;;;30.00;24.00;;;;;-143.90;100.00;77329.09;4891984;28;102577;-70
2024/03/20 05:42:55;;;;;;;;;20.00;18.33;;;;;-143.90;100.00;77318.75;4879076;28;102691;-69
2024/03/20 05:45:20;;;;;;;;;20.67;16.00;;;;;-143.90;100.00;77306.34;4894282;28;103178;-69
2024/03/20 05:47:46;;;;;;;;;11.67;10.67;;;;;-143.90;100.00;77287.72;4884359;28;103730;-69
2024/03/20 05:50:12;;;;;;;;;19.33;17.00;;;;;-143.90;100.00;77283.59;4883774;28;102121;-69
2024/03/20 05:52:38;;;;;;;;;17.00;14.67;;;;;-143.90;100.00;77273.25;4884179;28;104623;-70
2024/03/20 05:55:04;;;;;;;;;16.00;12.67;;;;;-143.90;100.00;77258.78;4898360;28;102394;-69
2024/03/20 05:57:29;;;;;;;;;16.33;12.33;;;;;-143.90;100.00;77260.84;4881724;28;104047;-68
2024/03/20 05:59:55;;;;;;;;;19.67;14.00;;;;;-143.90;100.00;77252.56;4889991;28;102275;-68
2024/03/20 06:02:21;;;;;;;;;12.67;11.00;;;;;-143.90;100.00;77244.28;4883060;28;102869;-69
2024/03/20 06:04:47;;;;;;;;;12.67;10.00;;;;;-143.90;100.00;77227.75;4882227;28;102631;-68
2024/03/20 06:07:13;;;;;;;;;13.67;11.00;;;;;-143.90;100.00;77215.34;4884617;28;103775;-68
2024/03/20 06:09:39;;;;;;;;;11.00;9.00;;;;;-143.90;100.00;77202.91;4890875;28;102369;-70
2024/03/20 06:12:05;;;;;;;;;11.00;10.00;;;;;-143.90;100.00;77196.72;4878871;28;103280;-70
2024/03/20 06:14:31;;;;;;;;;15.00;12.67;;;;;-143.90;100.00;77178.09;4880844;28;102338;-69
2024/03/20 06:16:57;;;;;;;;;17.33;15.00;;;;;-143.90;100.00;77161.56;4885740;28;102359;-70
2024/03/20 06:19:23;;;;;;;;;21.67;21.00;;;;;-143.90;100.00;77145.00;4774698;23;103307;-72
2024/03/20 06:21:49;;;;;;;;;15.00;13.33;;;;;-143.90;100.00;77128.47;4915384;28;104295;-71
2024/03/20 06:24:15;;;;;;;;;25.00;16.00;;;;;-143.90;100.00;77113.97;4953383;28;104076;-71
2024/03/20 06:26:40;;;;;;;;;17.33;15.00;;;;;-143.90;100.00;77097.44;4939850;28;101940;-72
2024/03/20 06:29:07;;;;;;;;;17.33;15.00;;;;;-143.90;100.00;77082.94;4938547;28;101851;-72
2024/03/20 06:31:35;;;;;;;;;15.00;11.33;;;;;-143.90;100.00;77058.13;4955519;28;104121;-71
2024/03/20 06:34:01;;;;;;;;;39.00;34.00;;;;;-143.90;100.00;77047.78;4929410;28;102246;-71
2024/03/20 06:36:27;;;;;;;;;32.33;25.33;;;;;-143.90;100.00;77025.03;4940953;28;101767;-71
2024/03/20 06:38:53;;;;;;;;;31.67;26.67;;;;;-143.90;100.00;77000.22;4941826;28;102563;-72
2024/03/20 06:41:18;;;;;;;;;43.67;37.67;;;;;-143.90;100.00;76987.81;4939898;28;104010;-71
2024/03/20 06:43:50;;;;;;;;;32.67;25.33;;;;;-143.90;100.00;76944.38;4937245;28;101559;-71
2024/03/20 06:46:19;;;;;;;;;46.33;36.67;;;;;-143.90;100.00;76905.06;4917655;28;101728;-71
2024/03/20 06:48:46;;;;;;;;;38.33;33.33;;;;;-143.90;100.00;76853.38;4950833;27;102128;-72
2024/03/20 06:51:15;;;;;;;;;35.00;30.33;;;;;-143.90;100.00;76809.94;4941125;28;108229;-72
2024/03/20 06:53:41;;;;;;;;;45.67;32.67;;;;;-143.90;100.00;76741.69;4932401;28;102112;-73
2024/03/20 06:56:07;;;;;;;;;30.33;25.00;;;;;-143.90;100.00;76669.28;4935734;28;102458;-73
2024/03/20 06:58:33;;;;;;;;;35.33;23.33;;;;;-143.90;100.00;76609.31;4917135;28;101606;-73
2024/03/20 07:00:59;;;;;;;;;29.00;23.67;;;;;-143.90;100.00;76574.16;4924857;28;103963;-73
2024/03/20 07:03:25;;;;;;;;;34.33;27.67;;;;;-143.90;100.00;76574.16;4901885;28;101582;-73
2024/03/20 07:05:51;;;;;;;;;59.67;40.33;;;;;-143.90;100.00;76584.50;4912321;28;102040;-73
2024/03/20 07:08:17;;;;;;;;;47.67;42.00;;;;;-143.90;100.00;76594.84;4925048;28;101976;-72
2024/03/20 07:10:43;;;;;;;;;50.67;38.33;;;;;-143.90;100.00;76603.13;4918486;28;103971;-72
2024/03/20 07:13:09;;;;;;;;;52.67;40.67;;;;;-143.90;100.00;76613.47;4917235;28;101666;-72
2024/03/20 07:15:36;;;;;;;;;58.33;44.00;;;;;-143.90;100.00;76644.47;4901392;28;101726;-72
2024/03/20 07:18:02;;;;;;;;;47.67;39.33;;;;;-143.90;100.00;76636.22;4912121;28;102100;-73
2024/03/20 07:20:29;;;;;;;;;61.67;47.67;;;;;-143.90;100.00;76669.28;4916205;28;104242;-72
2024/03/20 07:22:57;;;;;;;;;73.00;56.33;;;;;-143.90;100.00;76673.44;4929005;28;102231;-72
2024/03/20 07:25:26;;;;;;;;;64.33;48.67;;;;;-143.90;100.00;76644.47;4900115;28;102005;-74
2024/03/20 07:27:55;;;;;;;;;79.67;58.00;;;;;-143.90;100.00;76648.63;4915765;28;101849;-73
2024/03/20 07:30:21;;;;;;;;;69.67;52.33;;;;;-143.90;100.00;76603.13;4908259;28;103991;-73
2024/03/20 07:32:47;;;;;;;;;58.67;45.00;;;;;-143.90;100.00;76576.22;4940384;28;102056;-73
2024/03/20 07:35:13;;;;;;;;;50.67;38.67;;;;;-143.90;100.00;76555.53;4926223;28;101882;-74
2024/03/20 07:37:39;;;;;;;;;46.00;38.67;;;;;-143.90;100.00;76536.94;4929378;28;101849;-73
2024/03/20 07:40:07;;;;;;;;;39.00;31.67;;;;;-143.90;100.00;76516.25;4890907;28;104444;-72
2024/03/20 07:42:34;;;;;;;;;55.33;42.00;;;;;-143.90;100.00;76526.59;4897011;28;102029;-73
2024/03/20 07:45:00;;;;;;;;;57.67;44.67;;;;;-143.90;100.00;76507.97;4924627;28;101847;-72
2024/03/20 07:47:26;;;;;;;;;65.33;45.67;;;;;-143.90;100.00;76510.06;4918203;28;101748;-72
2024/03/20 07:49:52;;;;;;;;;66.00;48.00;;;;;-143.90;100.00;76487.31;4890897;28;104438;-72
2024/03/20 07:52:18;;;;;;;;;58.67;45.67;;;;;-143.90;100.00;76474.91;4927717;28;103347;-72
2024/03/20 07:54:44;;;;;;;;;53.00;43.67;;;;;-143.90;100.00;76445.94;4899288;28;101818;-72
2024/03/20 07:57:10;;;;;;;;;63.33;49.00;;;;;-143.90;100.00;76452.16;4914950;28;105427;-72
2024/03/20 07:59:36;;;;;;;;;76.33;57.33;;;;;-143.90;100.00;76421.13;4914592;28;103860;-72
2024/03/20 08:02:02;;;;;;;;;66.00;48.00;;;;;-143.90;100.00;76394.25;4907628;28;102141;-72
2024/03/20 08:04:28;;;;;;;;;66.00;51.33;;;;;-143.90;100.00;76367.34;4921261;28;101671;-72
2024/03/20 08:06:54;;;;;;;;;57.33;40.33;;;;;-143.90;100.00;76342.53;4919258;28;103285;-71
2024/03/20 08:09:20;;;;;;;;;53.00;43.00;;;;;-143.90;100.00;76342.53;4905334;28;102787;-71
2024/03/20 08:11:46;;;;;;;;;53.75;39.25;;;;;-143.90;100.00;76321.84;4904200;28;102000;-71
2024/03/20 08:14:13;;;;;;;;;53.25;40.25;;;;;-143.90;100.00;76309.44;4913231;28;101901;-72
2024/03/20 08:16:40;;;;;;;;;43.75;37.75;;;;;-143.90;100.00;76294.97;4920103;28;101681;-72
2024/03/20 08:19:06;;;;;;;;;44.25;30.50;;;;;-143.90;75.78;76274.28;4914963;28;104026;-72
2024/03/20 08:21:36;;;;;;;;;51.25;41.00;;;;;-143.90;72.42;76274.28;4920171;28;101780;-72
2024/03/20 08:24:04;;;;;;;;;49.75;37.00;;;;;-143.90;72.53;76263.97;4912900;28;102296;-72
2024/03/20 08:26:30;;;;;;;;;53.00;40.00;;;;;-143.90;70.37;76241.22;4920685;28;101955;-72
2024/03/20 08:28:56;;;;;;;;;52.75;41.75;;;;;-143.90;69.07;76222.59;4923606;28;103983;-73
2024/03/20 08:31:22;;;;;;;;;42.25;34.00;;;;;-143.90;69.90;76210.19;4922143;28;101947;-74
2024/03/20 08:33:48;;;;;;;;;36.50;31.50;;;;;-143.90;67.91;76181.25;4916364;28;102985;-71
2024/03/20 08:36:14;;;;;;;;;37.00;33.00;;;;;-143.90;68.71;76148.16;4924124;28;101608;-72
2024/03/20 08:38:40;;;;;;;;;45.25;36.00;;;;;-143.90;65.85;76152.28;4922658;28;104085;-72
2024/03/20 08:41:06;;;;;;;;;48.50;38.00;;;;;-143.90;66.40;76144.00;4922198;28;102171;-72
2024/03/20 08:43:33;;;;;;;;;45.50;36.50;;;;;-143.90;66.18;76131.59;4919480;28;102431;-73
2024/03/20 08:46:00;;;;;;;;;43.75;33.00;;;;;-143.90;67.03;76100.59;4911573;28;101630;-72
2024/03/20 08:48:26;;;;;;;;;34.25;26.50;;;;;-143.90;64.13;76086.13;4915651;28;104197;-73
2024/03/20 08:50:52;;;;;;;;;38.00;31.75;;;;;-143.90;61.80;76077.84;4923120;28;101901;-72
2024/03/20 08:53:19;;;;;;;;;42.75;35.50;;;;;-143.90;63.12;76073.72;4924266;28;101620;-73
2024/03/20 08:55:45;;;;;;;;;32.00;26.00;;;;;-143.90;62.83;76044.75;4921223;28;101709;-72
2024/03/20 08:58:11;;;;;;;;;37.25;25.50;;;;;-143.90;62.23;76022.00;4936341;28;104094;-73
2024/03/20 09:00:37;;;;;;;;;29.50;23.00;;;;;-143.90;59.47;76001.34;4920692;28;101976;-73
2024/03/20 09:03:03;;;;;;;;;47.00;36.75;;;;;-143.90;60.62;76073.72;4923784;28;103298;-73
2024/03/20 09:05:29;;;;;;;;;56.00;43.25;;;;;-143.90;59.96;76061.31;4915965;28;104472;-72
2024/03/20 09:07:55;;;;;;;;;38.25;34.50;;;;;-143.90;59.55;76026.16;4917786;28;103964;-72
2024/03/20 09:10:21;;;;;;;;;54.75;43.50;;;;;-143.90;55.86;76073.72;4917307;28;102178;-73
2024/03/20 09:12:47;;;;;;;;;43.25;36.00;;;;;-143.90;57.94;76019.94;4924895;28;101635;-72
2024/03/20 09:15:13;;;;;;;;;36.25;27.75;;;;;-143.90;57.83;76007.53;4901250;28;101886;-72
2024/03/20 09:17:39;;;;;;;;;26.50;22.50;;;;;-143.90;56.08;75997.19;4915910;28;104235;-73
2024/03/20 09:20:15;;;;;;;;;30.75;26.00;;;;;-143.90;55.98;75970.31;4911957;28;102028;-72
2024/03/20 09:22:45;;;;;;;;;37.75;31.00;;;;;-143.90;56.55;75970.31;4901375;28;101814;-72
2024/03/20 09:25:11;;;;;;;;;45.25;38.00;;;;;-143.90;55.07;76053.03;4919409;28;102022;-72
2024/03/20 09:27:37;;;;;;;;;46.75;35.25;;;;;-143.90;55.58;76024.06;4910888;28;102076;-72
2024/03/20 09:30:03;;;;;;;;;50.50;38.25;;;;;-143.90;56.29;76048.88;4913979;28;101501;-73
2024/03/20 09:32:30;;;;;;;;;36.75;31.00;;;;;-143.90;54.26;76022.00;4910899;28;101625;-72
2024/03/20 09:34:58;;;;;;;;;31.50;27.75;;;;;-143.90;53.90;75986.84;4905873;28;101858;-72
2024/03/20 09:37:29;;;;;;;;;38.75;29.75;;;;;-143.90;52.56;75978.59;4922906;28;102290;-72
2024/03/20 09:39:55;;;;;;;;;25.00;21.25;;;;;-143.90;53.46;75947.56;4912817;28;101942;-73
2024/03/20 09:42:24;;;;;;;;;21.75;18.25;;;;;-143.90;50.26;75914.47;4928159;28;101907;-72
2024/03/20 09:44:50;;;;;;;;;30.25;24.50;;;;;-143.90;51.09;75912.41;4929858;28;101765;-72
2024/03/20 09:47:20;;;;;;;;;37.00;32.75;;;;;-143.90;50.82;75931.03;4922126;28;104085;-72
2024/03/20 09:49:47;;;;;;;;;38.50;27.75;;;;;-143.90;52.51;75895.88;4917797;28;101862;-72
2024/03/20 09:52:13;;;;;;;;;25.25;20.00;;;;;-143.90;51.71;75864.84;4917068;28;101405;-72
2024/03/20 09:54:42;;;;;;;;;40.00;32.75;;;;;-143.90;50.51;75887.59;4929186;28;101763;-72
2024/03/20 09:57:14;;;;;;;;;45.75;36.00;;;;;-143.90;50.33;75887.59;4906744;28;102831;-72
2024/03/20 09:59:47;;;;;;;;;32.25;30.25;;;;;-143.90;51.91;75858.66;4905258;28;101727;-72
2024/03/20 10:02:13;;;;;;;;;31.50;26.75;;;;;-143.90;50.02;75858.66;4934179;28;101887;-72
2024/03/20 10:04:39;;;;;;;;;29.50;25.75;;;;;-143.90;48.60;75819.38;4906466;28;101830;-73
2024/03/20 10:07:15;;;;;;;;;29.25;26.25;;;;;-143.90;48.25;75813.16;4921732;28;104405;-72
2024/03/20 10:09:47;;;;;;;;;37.00;28.50;;;;;-143.90;48.84;75809.03;4927207;28;101947;-73
2024/03/20 10:12:14;;;;;;;;;42.25;35.00;;;;;-143.90;49.23;75800.75;4918937;28;101501;-71
2024/03/20 10:14:40;;;;;;;;;37.50;31.25;;;;;-143.90;48.47;75775.94;4912427;28;101469;-72
2024/03/20 10:17:14;;;;;;;;;24.00;21.75;;;;;-143.90;49.63;75740.78;4922644;28;104020;-72
2024/03/20 10:19:45;;;;;;;;;31.00;28.75;;;;;-143.90;46.92;75755.28;4918459;28;102233;-72
2024/03/20 10:22:12;;;;;;;;;23.25;20.00;;;;;-143.90;48.08;75732.53;4945258;28;101909;-73
2024/03/20 10:24:38;;;;;;;;;42.00;34.50;;;;;-143.90;47.99;75765.59;4928157;28;101955;-73
2024/03/20 10:27:05;;;;;;;;;32.50;29.75;;;;;-143.90;46.23;75763.53;4905883;28;104154;-73
2024/03/20 10:29:35;;;;;;;;;35.25;34.00;;;;;-143.90;47.61;75755.28;4922169;28;101797;-72
2024/03/20 10:32:02;;;;;;;;;43.75;34.50;;;;;-143.90;46.68;75796.63;4906355;28;101955;-73
2024/03/20 10:34:28;;;;;;;;;49.25;37.50;;;;;-143.90;46.09;75825.56;4904532;28;103655;-73
2024/03/20 10:36:56;;;;;;;;;41.25;36.25;;;;;-143.90;47.60;75842.13;4922584;28;104104;-72
2024/03/20 10:39:23;;;;;;;;;36.75;33.25;;;;;-143.90;47.00;75796.63;4922158;28;102052;-72
2024/03/20 10:41:51;;;;;;;;;38.25;32.25;;;;;-143.90;46.61;75755.28;4902262;28;102109;-72
2024/03/20 10:44:19;;;;;;;;;43.75;35.75;;;;;-143.90;45.71;75740.78;4929846;28;102255;-73
2024/03/20 10:46:50;;;;;;;;;28.00;23.50;;;;;-143.90;45.89;75720.13;4921471;28;104033;-72